sensor_id;sensor_type;location;lat;lon;timestamp;pressure;altitude;pressure_sealevel;temperature;humidity
34674;BME280;20879;55.668;37.858;2023-05-10T00:01:10;100821.75;;;8.59;38.69
34674;BME280;20879;55.668;37.858;2023-05-10T00:03:39;100828.63;;;8.58;38.69
34674;BME280;20879;55.668;37.858;2023-05-10T00:06:09;100826.97;;;8.65;38.86
34674;BME280;20879;55.668;37.858;2023-05-10T00:08:41;100826.91;;;8.59;38.60
34674;BME280;20879;55.668;37.858;2023-05-10T00:11:15;100817.44;;;8.59;38.64
34674;BME280;20879;55.668;37.858;2023-05-10T00:13:48;100812.22;;;8.53;38.97
34674;BME280;20879;55.668;37.858;2023-05-10T00:16:18;100813.06;;;8.53;39.18
34674;BME280;20879;55.668;37.858;2023-05-10T00:18:47;100820.88;;;8.58;39.18
34674;BME280;20879;55.668;37.858;2023-05-10T00:21:16;100809.59;;;8.50;38.84
34674;BME280;20879;55.668;37.858;2023-05-10T00:23:48;100826.94;;;8.63;38.84
34674;BME280;20879;55.668;37.858;2023-05-10T00:26:17;100814.88;;;8.61;38.73
34674;BME280;20879;55.668;37.858;2023-05-10T00:28:51;100822.63;;;8.64;39.29
34674;BME280;20879;55.668;37.858;2023-05-10T00:31:20;100820.00;;;8.59;39.08
34674;BME280;20879;55.668;37.858;2023-05-10T00:33:50;100826.00;;;8.55;39.40
34674;BME280;20879;55.668;37.858;2023-05-10T00:36:19;100822.50;;;8.50;39.50
34674;BME280;20879;55.668;37.858;2023-05-10T00:38:51;100821.69;;;8.52;39.63
34674;BME280;20879;55.668;37.858;2023-05-10T00:41:25;100775.75;;;8.25;39.23
34674;BME280;20879;55.668;37.858;2023-05-10T00:43:56;100816.53;;;8.54;39.42
34674;BME280;20879;55.668;37.858;2023-05-10T00:46:26;100813.91;;;8.49;39.66
34674;BME280;20879;55.668;37.858;2023-05-10T00:48:56;100834.56;;;8.51;39.82
34674;BME280;20879;55.668;37.858;2023-05-10T00:51:25;100829.38;;;8.48;39.68
34674;BME280;20879;55.668;37.858;2023-05-10T00:53:57;100831.06;;;8.47;40.59
34674;BME280;20879;55.668;37.858;2023-05-10T00:56:32;100832.81;;;8.47;40.29
34674;BME280;20879;55.668;37.858;2023-05-10T00:59:02;100825.94;;;8.49;39.95
34674;BME280;20879;55.668;37.858;2023-05-10T01:01:32;100813.00;;;8.46;40.19
34674;BME280;20879;55.668;37.858;2023-05-10T01:04:01;100823.44;;;8.56;40.37
34674;BME280;20879;55.668;37.858;2023-05-10T01:06:31;100826.06;;;8.61;39.66
34674;BME280;20879;55.668;37.858;2023-05-10T01:09:12;100820.03;;;8.62;39.73
34674;BME280;20879;55.668;37.858;2023-05-10T01:11:44;100813.13;;;8.56;39.82
34674;BME280;20879;55.668;37.858;2023-05-10T01:14:15;100814.84;;;8.57;39.82
34674;BME280;20879;55.668;37.858;2023-05-10T01:16:52;100801.84;;;8.50;39.34
34674;BME280;20879;55.668;37.858;2023-05-10T01:19:24;100819.16;;;8.60;39.82
34674;BME280;20879;55.668;37.858;2023-05-10T01:22:05;100820.94;;;8.64;40.04
34674;BME280;20879;55.668;37.858;2023-05-10T01:25:02;100818.41;;;8.69;39.90
34674;BME280;20879;55.668;37.858;2023-05-10T01:28:09;100821.00;;;8.70;39.82
34674;BME280;20879;55.668;37.858;2023-05-10T01:33:59;100812.28;;;8.59;40.62
34674;BME280;20879;55.668;37.858;2023-05-10T01:36:42;100812.22;;;8.53;40.61
34674;BME280;20879;55.668;37.858;2023-05-10T01:39:17;100816.53;;;8.52;40.54
34674;BME280;20879;55.668;37.858;2023-05-10T01:41:59;100813.06;;;8.52;40.49
34674;BME280;20879;55.668;37.858;2023-05-10T01:44:42;100820.00;;;8.57;40.01
34674;BME280;20879;55.668;37.858;2023-05-10T01:47:26;100814.88;;;8.62;39.99
34674;BME280;20879;55.668;37.858;2023-05-10T01:50:02;100817.47;;;8.64;39.67
34674;BME280;20879;55.668;37.858;2023-05-10T01:52:41;100807.22;;;8.67;39.83
34674;BME280;20879;55.668;37.858;2023-05-10T01:55:15;100813.25;;;8.72;39.48
34674;BME280;20879;55.668;37.858;2023-05-10T01:57:55;100786.44;;;8.56;39.86
34674;BME280;20879;55.668;37.858;2023-05-10T02:00:27;100810.66;;;8.70;39.76
34674;BME280;20879;55.668;37.858;2023-05-10T02:02:59;100818.38;;;8.67;40.28
34674;BME280;20879;55.668;37.858;2023-05-10T02:05:32;100814.19;;;8.76;39.74
34674;BME280;20879;55.668;37.858;2023-05-10T02:08:07;100816.69;;;8.71;39.70
34674;BME280;20879;55.668;37.858;2023-05-10T02:10:39;100816.72;;;8.74;39.70
34674;BME280;20879;55.668;37.858;2023-05-10T02:13:18;100804.72;;;8.76;40.26
34674;BME280;20879;55.668;37.858;2023-05-10T02:15:49;100817.63;;;8.76;39.94
34674;BME280;20879;55.668;37.858;2023-05-10T02:18:21;100804.69;;;8.73;40.83
34674;BME280;20879;55.668;37.858;2023-05-10T02:20:54;100805.56;;;8.77;40.14
34674;BME280;20879;55.668;37.858;2023-05-10T02:23:30;100808.06;;;8.67;40.90
34674;BME280;20879;55.668;37.858;2023-05-10T02:26:01;100804.63;;;8.67;40.61
34674;BME280;20879;55.668;37.858;2023-05-10T02:28:33;100803.72;;;8.63;40.95
34674;BME280;20879;55.668;37.858;2023-05-10T02:31:10;100796.78;;;8.59;40.84
34674;BME280;20879;55.668;37.858;2023-05-10T02:33:40;100799.47;;;8.68;41.01
34674;BME280;20879;55.668;37.858;2023-05-10T02:36:17;100803.75;;;8.69;40.54
34674;BME280;20879;55.668;37.858;2023-05-10T02:38:49;100804.69;;;8.74;40.34
34674;BME280;20879;55.668;37.858;2023-05-10T02:41:23;100803.88;;;8.79;40.29
34674;BME280;20879;55.668;37.858;2023-05-10T02:44:01;100803.97;;;8.91;39.60
34674;BME280;20879;55.668;37.858;2023-05-10T02:46:32;100807.47;;;8.96;39.79
34674;BME280;20879;55.668;37.858;2023-05-10T02:49:06;100799.78;;;9.02;39.50
34674;BME280;20879;55.668;37.858;2023-05-10T02:51:41;100790.34;;;9.07;39.75
34674;BME280;20879;55.668;37.858;2023-05-10T02:54:18;100788.63;;;9.08;39.80
34674;BME280;20879;55.668;37.858;2023-05-10T02:56:58;100795.63;;;9.20;39.42
34674;BME280;20879;55.668;37.858;2023-05-10T02:59:28;100800.84;;;9.29;39.10
34674;BME280;20879;55.668;37.858;2023-05-10T03:01:58;100794.00;;;9.34;39.31
34674;BME280;20879;55.668;37.858;2023-05-10T03:04:27;100785.38;;;9.35;38.94
34674;BME280;20879;55.668;37.858;2023-05-10T03:07:00;100797.50;;;9.45;39.35
34674;BME280;20879;55.668;37.858;2023-05-10T03:09:34;100781.94;;;9.38;39.32
34674;BME280;20879;55.668;37.858;2023-05-10T03:12:10;100796.78;;;9.62;39.07
34674;BME280;20879;55.668;37.858;2023-05-10T03:14:53;100793.31;;;9.65;39.14
34674;BME280;20879;55.668;37.858;2023-05-10T03:17:30;100796.78;;;9.62;39.19
34674;BME280;20879;55.668;37.858;2023-05-10T03:20:04;100795.88;;;9.57;39.38
34674;BME280;20879;55.668;37.858;2023-05-10T03:22:44;100789.84;;;9.59;39.91
34674;BME280;20879;55.668;37.858;2023-05-10T03:25:16;100792.50;;;9.73;39.51
34674;BME280;20879;55.668;37.858;2023-05-10T03:27:47;100791.69;;;9.85;38.81
34674;BME280;20879;55.668;37.858;2023-05-10T03:30:17;100794.34;;;9.93;38.94
34674;BME280;20879;55.668;37.858;2023-05-10T03:32:52;100783.97;;;9.90;38.83
34674;BME280;20879;55.668;37.858;2023-05-10T03:35:21;100783.94;;;9.82;39.14
34674;BME280;20879;55.668;37.858;2023-05-10T03:37:58;100794.34;;;9.94;39.46
34674;BME280;20879;55.668;37.858;2023-05-10T03:40:46;100786.63;;;10.05;39.28
34674;BME280;20879;55.668;37.858;2023-05-10T03:43:21;100789.22;;;10.13;39.98
34674;BME280;20879;55.668;37.858;2023-05-10T03:45:58;100786.72;;;10.28;39.54
34674;BME280;20879;55.668;37.858;2023-05-10T03:48:27;100788.44;;;10.28;40.05
34674;BME280;20879;55.668;37.858;2023-05-10T03:50:57;100784.97;;;10.27;39.67
34674;BME280;20879;55.668;37.858;2023-05-10T03:53:33;100778.06;;;10.23;39.92
34674;BME280;20879;55.668;37.858;2023-05-10T03:56:04;100785.81;;;10.25;40.28
34674;BME280;20879;55.668;37.858;2023-05-10T03:58:33;100787.66;;;10.41;40.06
34674;BME280;20879;55.668;37.858;2023-05-10T04:01:08;100764.34;;;10.47;40.06
34674;BME280;20879;55.668;37.858;2023-05-10T04:03:42;100739.31;;;10.53;39.90
34674;BME280;20879;55.668;37.858;2023-05-10T04:06:12;100786.00;;;10.97;39.46
34674;BME280;20879;55.668;37.858;2023-05-10T04:08:45;100781.69;;;11.10;39.33
34674;BME280;20879;55.668;37.858;2023-05-10T04:11:29;100782.53;;;11.29;38.63
34674;BME280;20879;55.668;37.858;2023-05-10T04:13:59;100759.22;;;11.23;38.59
34674;BME280;20879;55.668;37.858;2023-05-10T04:16:28;100779.94;;;11.29;39.11
34674;BME280;20879;55.668;37.858;2023-05-10T04:18:58;100778.22;;;11.24;38.77
34674;BME280;20879;55.668;37.858;2023-05-10T04:21:33;100779.94;;;11.23;38.72
34674;BME280;20879;55.668;37.858;2023-05-10T04:24:05;100778.22;;;11.24;38.78
34674;BME280;20879;55.668;37.858;2023-05-10T04:26:34;100773.88;;;11.23;38.82
34674;BME280;20879;55.668;37.858;2023-05-10T04:29:03;100768.69;;;11.23;38.53
34674;BME280;20879;55.668;37.858;2023-05-10T04:31:33;100759.22;;;11.22;38.89
34674;BME280;20879;55.668;37.858;2023-05-10T04:34:03;100743.66;;;11.23;38.56
34674;BME280;20879;55.668;37.858;2023-05-10T04:36:32;100774.72;;;11.54;38.94
34674;BME280;20879;55.668;37.858;2023-05-10T04:39:05;100767.75;;;11.62;37.95
34674;BME280;20879;55.668;37.858;2023-05-10T04:41:38;100765.16;;;11.61;38.09
34674;BME280;20879;55.668;37.858;2023-05-10T04:44:08;100769.53;;;11.52;37.94
34674;BME280;20879;55.668;37.858;2023-05-10T04:46:38;100755.66;;;11.63;37.92
34674;BME280;20879;55.668;37.858;2023-05-10T04:49:23;100763.38;;;11.78;37.86
34674;BME280;20879;55.668;37.858;2023-05-10T04:51:52;100762.47;;;11.88;37.26
34674;BME280;20879;55.668;37.858;2023-05-10T04:54:36;100749.53;;;11.81;37.47
34674;BME280;20879;55.668;37.858;2023-05-10T04:57:11;100759.88;;;12.01;37.01
34674;BME280;20879;55.668;37.858;2023-05-10T04:59:40;100754.66;;;12.07;36.90
34674;BME280;20879;55.668;37.858;2023-05-10T05:02:09;100757.19;;;12.19;36.97
34674;BME280;20879;55.668;37.858;2023-05-10T05:04:39;100757.09;;;12.36;36.79
34674;BME280;20879;55.668;37.858;2023-05-10T05:07:14;100744.03;;;12.53;36.12
34674;BME280;20879;55.668;37.858;2023-05-10T05:09:45;100758.66;;;12.64;36.08
34674;BME280;20879;55.668;37.858;2023-05-10T05:12:20;100743.72;;;12.92;35.96
34674;BME280;20879;55.668;37.858;2023-05-10T05:14:49;100754.66;;;13.28;34.92
34674;BME280;20879;55.668;37.858;2023-05-10T05:17:19;100753.69;;;13.43;33.95
34674;BME280;20879;55.668;37.858;2023-05-10T05:19:54;100747.59;;;13.42;33.85
34674;BME280;20879;55.668;37.858;2023-05-10T05:22:23;100736.31;;;13.45;33.51
34674;BME280;20879;55.668;37.858;2023-05-10T05:24:56;100738.75;;;13.60;32.66
34674;BME280;20879;55.668;37.858;2023-05-10T05:27:28;100736.31;;;13.45;32.93
34674;BME280;20879;55.668;37.858;2023-05-10T05:29:58;100719.81;;;13.48;32.54
34674;BME280;20879;55.668;37.858;2023-05-10T05:32:33;100727.44;;;13.61;32.52
34674;BME280;20879;55.668;37.858;2023-05-10T05:35:04;100707.31;;;13.76;32.31
34674;BME280;20879;55.668;37.858;2023-05-10T05:37:38;100717.06;;;14.25;31.81
34674;BME280;20879;55.668;37.858;2023-05-10T05:40:12;100717.56;;;14.50;30.24
34674;BME280;20879;55.668;37.858;2023-05-10T05:42:43;100722.41;;;14.77;30.83
34674;BME280;20879;55.668;37.858;2023-05-10T05:45:12;100722.50;;;14.71;30.23
34674;BME280;20879;55.668;37.858;2023-05-10T05:47:42;100716.72;;;14.50;29.63
34674;BME280;20879;55.668;37.858;2023-05-10T05:50:17;100713.38;;;14.40;30.05
34674;BME280;20879;55.668;37.858;2023-05-10T05:52:51;100718.56;;;14.42;29.58
34674;BME280;20879;55.668;37.858;2023-05-10T05:55:23;100716.63;;;14.56;29.71
34674;BME280;20879;55.668;37.858;2023-05-10T05:57:53;100674.84;;;14.61;29.28
34674;BME280;20879;55.668;37.858;2023-05-10T06:00:27;100705.53;;;14.98;28.54
34674;BME280;20879;55.668;37.858;2023-05-10T06:02:57;100709.91;;;14.96;28.51
34674;BME280;20879;55.668;37.858;2023-05-10T06:05:27;100701.69;;;15.19;28.78
34674;BME280;20879;55.668;37.858;2023-05-10T06:07:56;100709.66;;;15.57;28.06
34674;BME280;20879;55.668;37.858;2023-05-10T06:10:27;100713.84;;;15.65;27.83
34674;BME280;20879;55.668;37.858;2023-05-10T06:12:56;100710.16;;;15.76;28.03
34674;BME280;20879;55.668;37.858;2023-05-10T06:15:27;100704.91;;;15.79;27.78
34674;BME280;20879;55.668;37.858;2023-05-10T06:17:56;100707.16;;;15.50;27.16
34674;BME280;20879;55.668;37.858;2023-05-10T06:20:26;100709.06;;;15.42;27.26
34674;BME280;20879;55.668;37.858;2023-05-10T06:22:55;100709.47;;;15.66;27.41
34674;BME280;20879;55.668;37.858;2023-05-10T06:25:31;100705.41;;;15.96;26.83
34674;BME280;20879;55.668;37.858;2023-05-10T06:28:01;100698.31;;;16.01;26.99
34674;BME280;20879;55.668;37.858;2023-05-10T06:30:30;100697.88;;;16.21;27.10
34674;BME280;20879;55.668;37.858;2023-05-10T06:33:00;100699.94;;;16.45;26.43
34674;BME280;20879;55.668;37.858;2023-05-10T06:35:29;100697.81;;;16.60;26.31
34674;BME280;20879;55.668;37.858;2023-05-10T06:38:00;100693.84;;;16.80;26.04
34674;BME280;20879;55.668;37.858;2023-05-10T06:40:31;100679.25;;;16.71;25.08
34674;BME280;20879;55.668;37.858;2023-05-10T06:43:01;100703.97;;;16.96;25.09
34674;BME280;20879;55.668;37.858;2023-05-10T06:45:30;100688.34;;;16.91;24.99
34674;BME280;20879;55.668;37.858;2023-05-10T06:48:05;100699.91;;;16.46;25.33
34674;BME280;20879;55.668;37.858;2023-05-10T06:50:34;100678.88;;;16.13;25.21
34674;BME280;20879;55.668;37.858;2023-05-10T06:53:04;100682.13;;;16.24;24.96
34674;BME280;20879;55.668;37.858;2023-05-10T06:55:36;100689.22;;;16.19;24.83
34674;BME280;20879;55.668;37.858;2023-05-10T06:58:05;100690.28;;;16.11;24.53
34674;BME280;20879;55.668;37.858;2023-05-10T07:00:35;100694.25;;;16.27;24.80
34674;BME280;20879;55.668;37.858;2023-05-10T07:03:07;100687.44;;;16.56;24.64
34674;BME280;20879;55.668;37.858;2023-05-10T07:05:36;100695.53;;;16.83;23.87
34674;BME280;20879;55.668;37.858;2023-05-10T07:08:11;100690.72;;;17.02;24.19
34674;BME280;20879;55.668;37.858;2023-05-10T07:10:43;100679.84;;;16.83;23.69
34674;BME280;20879;55.668;37.858;2023-05-10T07:13:12;100675.75;;;16.72;23.97
34674;BME280;20879;55.668;37.858;2023-05-10T07:15:42;100674.94;;;16.69;23.75
34674;BME280;20879;55.668;37.858;2023-05-10T07:18:11;100668.56;;;16.79;23.81
34674;BME280;20879;55.668;37.858;2023-05-10T07:20:41;100676.00;;;16.62;23.38
34674;BME280;20879;55.668;37.858;2023-05-10T07:23:10;100667.28;;;16.61;23.67
34674;BME280;20879;55.668;37.858;2023-05-10T07:25:42;100678.03;;;16.85;23.69
34674;BME280;20879;55.668;37.858;2023-05-10T07:28:14;100669.78;;;17.33;23.25
34674;BME280;20879;55.668;37.858;2023-05-10T07:30:50;100668.56;;;17.76;22.85
34674;BME280;20879;55.668;37.858;2023-05-10T07:33:20;100660.16;;;17.65;22.29
34674;BME280;20879;55.668;37.858;2023-05-10T07:35:50;100660.59;;;17.50;22.55
34674;BME280;20879;55.668;37.858;2023-05-10T07:38:19;100652.84;;;17.76;22.33
34674;BME280;20879;55.668;37.858;2023-05-10T07:40:51;100659.50;;;17.87;22.37
34674;BME280;20879;55.668;37.858;2023-05-10T07:43:20;100662.19;;;17.85;22.80
34674;BME280;20879;55.668;37.858;2023-05-10T07:45:50;100655.75;;;17.97;22.56
34674;BME280;20879;55.668;37.858;2023-05-10T07:48:27;100663.84;;;18.17;22.05
34674;BME280;20879;55.668;37.858;2023-05-10T07:50:57;100652.78;;;18.36;22.18
34674;BME280;20879;55.668;37.858;2023-05-10T07:53:33;100632.84;;;18.02;21.62
34674;BME280;20879;55.668;37.858;2023-05-10T07:56:21;100603.81;;;17.80;22.36
34674;BME280;20879;55.668;37.858;2023-05-10T07:58:51;100636.00;;;17.85;22.23
34674;BME280;20879;55.668;37.858;2023-05-10T08:01:21;100625.09;;;17.99;22.40
34674;BME280;20879;55.668;37.858;2023-05-10T08:03:56;100640.63;;;17.47;22.51
34674;BME280;20879;55.668;37.858;2023-05-10T08:06:25;100648.19;;;16.93;23.33
34674;BME280;20879;55.668;37.858;2023-05-10T08:08:56;100651.44;;;16.67;23.75
34674;BME280;20879;55.668;37.858;2023-05-10T08:11:28;100641.59;;;16.42;23.67
34674;BME280;20879;55.668;37.858;2023-05-10T08:13:59;100645.78;;;16.50;24.05
34674;BME280;20879;55.668;37.858;2023-05-10T08:16:29;100642.84;;;16.28;23.63
34674;BME280;20879;55.668;37.858;2023-05-10T08:18:59;100643.91;;;15.80;23.86
34674;BME280;20879;55.668;37.858;2023-05-10T08:21:29;100635.41;;;15.28;24.13
34674;BME280;20879;55.668;37.858;2023-05-10T08:24:04;100640.38;;;14.95;24.98
34674;BME280;20879;55.668;37.858;2023-05-10T08:26:35;100633.97;;;14.66;25.01
34674;BME280;20879;55.668;37.858;2023-05-10T08:29:05;100641.63;;;14.74;24.87
34674;BME280;20879;55.668;37.858;2023-05-10T08:31:34;100627.13;;;14.57;25.02
34674;BME280;20879;55.668;37.858;2023-05-10T08:34:04;100631.50;;;14.54;25.28
34674;BME280;20879;55.668;37.858;2023-05-10T08:36:33;100622.88;;;14.51;25.39
34674;BME280;20879;55.668;37.858;2023-05-10T08:39:03;100634.03;;;14.61;25.15
34674;BME280;20879;55.668;37.858;2023-05-10T08:41:46;100606.06;;;14.71;25.14
34674;BME280;20879;55.668;37.858;2023-05-10T08:44:18;100616.50;;;14.70;25.19
34674;BME280;20879;55.668;37.858;2023-05-10T08:46:51;100609.66;;;14.64;25.15
34674;BME280;20879;55.668;37.858;2023-05-10T08:49:23;100616.44;;;14.73;25.11
34674;BME280;20879;55.668;37.858;2023-05-10T08:52:02;100587.44;;;14.91;24.03
34674;BME280;20879;55.668;37.858;2023-05-10T08:54:39;100605.88;;;14.82;23.19
34674;BME280;20879;55.668;37.858;2023-05-10T08:57:12;100614.56;;;14.81;23.88
34674;BME280;20879;55.668;37.858;2023-05-10T08:59:46;100612.47;;;15.00;23.25
34674;BME280;20879;55.668;37.858;2023-05-10T09:02:20;100608.91;;;15.48;23.19
34674;BME280;20879;55.668;37.858;2023-05-10T09:04:56;100606.38;;;16.23;22.54
34674;BME280;20879;55.668;37.858;2023-05-10T09:07:26;100598.56;;;16.56;22.25
34674;BME280;20879;55.668;37.858;2023-05-10T09:10:01;100605.97;;;17.07;21.75
34674;BME280;20879;55.668;37.858;2023-05-10T09:12:33;100581.34;;;17.73;20.99
34674;BME280;20879;55.668;37.858;2023-05-10T09:15:03;100561.63;;;18.17;21.13
34674;BME280;20879;55.668;37.858;2023-05-10T09:17:33;100581.84;;;18.91;20.98
34674;BME280;20879;55.668;37.858;2023-05-10T09:20:05;100561.59;;;18.95;20.83
34674;BME280;20879;55.668;37.858;2023-05-10T09:22:39;100572.06;;;18.69;20.43
34674;BME280;20879;55.668;37.858;2023-05-10T09:25:10;100564.28;;;18.16;20.53
34674;BME280;20879;55.668;37.858;2023-05-10T09:27:48;100572.34;;;17.81;21.09
34674;BME280;20879;55.668;37.858;2023-05-10T09:30:24;100584.72;;;17.48;22.00
34674;BME280;20879;55.668;37.858;2023-05-10T09:33:00;100574.91;;;17.55;21.68
34674;BME280;20879;55.668;37.858;2023-05-10T09:35:32;100541.34;;;17.39;21.59
34674;BME280;20879;55.668;37.858;2023-05-10T09:38:03;100570.31;;;17.03;21.69
34674;BME280;20879;55.668;37.858;2023-05-10T09:40:33;100565.06;;;16.70;22.01
34674;BME280;20879;55.668;37.858;2023-05-10T09:43:06;100563.09;;;16.46;22.26
34674;BME280;20879;55.668;37.858;2023-05-10T09:45:37;100536.53;;;16.28;22.77
34674;BME280;20879;55.668;37.858;2023-05-10T09:48:08;100560.50;;;16.46;22.27
34674;BME280;20879;55.668;37.858;2023-05-10T09:50:38;100566.72;;;17.07;22.13
34674;BME280;20879;55.668;37.858;2023-05-10T09:53:14;100554.41;;;17.69;22.28
34674;BME280;20879;55.668;37.858;2023-05-10T09:55:45;100531.69;;;17.70;21.52
34674;BME280;20879;55.668;37.858;2023-05-10T09:58:18;100548.91;;;18.05;21.44
34674;BME280;20879;55.668;37.858;2023-05-10T10:00:47;100492.38;;;17.43;21.40
34674;BME280;20879;55.668;37.858;2023-05-10T10:03:19;100547.59;;;17.35;22.13
34674;BME280;20879;55.668;37.858;2023-05-10T10:05:56;100555.09;;;17.18;21.79
34674;BME280;20879;55.668;37.858;2023-05-10T10:08:26;100533.72;;;17.02;22.20
34674;BME280;20879;55.668;37.858;2023-05-10T10:10:56;100541.31;;;17.11;22.08
34674;BME280;20879;55.668;37.858;2023-05-10T10:13:27;100537.81;;;17.12;22.35
34674;BME280;20879;55.668;37.858;2023-05-10T10:16:09;100529.31;;;17.04;22.34
34674;BME280;20879;55.668;37.858;2023-05-10T10:18:39;100537.50;;;17.21;21.93
34674;BME280;20879;55.668;37.858;2023-05-10T10:21:10;100531.69;;;17.41;21.78
34674;BME280;20879;55.668;37.858;2023-05-10T10:23:42;100527.59;;;17.89;21.49
34674;BME280;20879;55.668;37.858;2023-05-10T10:26:12;100531.66;;;18.25;21.29
34674;BME280;20879;55.668;37.858;2023-05-10T10:28:49;100514.28;;;18.47;21.13
34674;BME280;20879;55.668;37.858;2023-05-10T10:31:27;100507.25;;;18.73;21.52
34674;BME280;20879;55.668;37.858;2023-05-10T10:34:06;100501.09;;;18.74;21.19
34674;BME280;20879;55.668;37.858;2023-05-10T10:36:50;100516.94;;;18.96;20.99
34674;BME280;20879;55.668;37.858;2023-05-10T10:39:20;100505.69;;;18.93;20.83
34674;BME280;20879;55.668;37.858;2023-05-10T10:41:57;100513.41;;;19.19;21.24
34674;BME280;20879;55.668;37.858;2023-05-10T10:44:40;100512.91;;;19.33;20.90
34674;BME280;20879;55.668;37.858;2023-05-10T10:47:23;100508.94;;;19.45;20.47
34674;BME280;20879;55.668;37.858;2023-05-10T10:50:04;100485.03;;;19.29;20.55
34674;BME280;20879;55.668;37.858;2023-05-10T10:52:40;100501.34;;;19.15;20.94
34674;BME280;20879;55.668;37.858;2023-05-10T10:55:11;100505.78;;;19.13;20.92
34674;BME280;20879;55.668;37.858;2023-05-10T10:57:49;100491.31;;;19.47;20.85
34674;BME280;20879;55.668;37.858;2023-05-10T11:00:30;100494.88;;;19.90;19.95
34674;BME280;20879;55.668;37.858;2023-05-10T11:03:08;100495.56;;;20.16;19.84
34674;BME280;20879;55.668;37.858;2023-05-10T11:05:42;100487.84;;;20.32;19.91
34674;BME280;20879;55.668;37.858;2023-05-10T11:08:14;100481.53;;;19.95;19.73
34674;BME280;20879;55.668;37.858;2023-05-10T11:10:52;100453.91;;;19.42;19.93
34674;BME280;20879;55.668;37.858;2023-05-10T11:13:29;100484.31;;;19.70;19.88
34674;BME280;20879;55.668;37.858;2023-05-10T11:16:10;100476.16;;;19.76;20.42
34674;BME280;20879;55.668;37.858;2023-05-10T11:18:58;100487.59;;;19.75;20.63
34674;BME280;20879;55.668;37.858;2023-05-10T11:21:31;100433.66;;;19.66;20.15
34674;BME280;20879;55.668;37.858;2023-05-10T11:24:01;100479.50;;;19.81;20.15
34674;BME280;20879;55.668;37.858;2023-05-10T11:26:35;100471.06;;;19.51;20.22
34674;BME280;20879;55.668;37.858;2023-05-10T11:29:05;100465.69;;;19.10;20.36
34674;BME280;20879;55.668;37.858;2023-05-10T11:31:42;100475.34;;;18.84;20.80
34674;BME280;20879;55.668;37.858;2023-05-10T11:34:23;100452.16;;;18.73;20.59
34674;BME280;20879;55.668;37.858;2023-05-10T11:36:59;100464.47;;;18.22;20.89
34674;BME280;20879;55.668;37.858;2023-05-10T11:39:30;100453.94;;;17.98;21.72
34674;BME280;20879;55.668;37.858;2023-05-10T11:42:00;100460.94;;;17.98;21.89
34674;BME280;20879;55.668;37.858;2023-05-10T11:44:35;100454.88;;;17.96;21.72
34674;BME280;20879;55.668;37.858;2023-05-10T11:47:12;100463.75;;;17.92;21.91
34674;BME280;20879;55.668;37.858;2023-05-10T11:49:43;100455.78;;;18.22;21.78
34674;BME280;20879;55.668;37.858;2023-05-10T11:52:19;100454.97;;;18.45;21.21
34674;BME280;20879;55.668;37.858;2023-05-10T11:55:00;100454.84;;;18.72;21.29
34674;BME280;20879;55.668;37.858;2023-05-10T11:57:30;100457.59;;;18.92;21.27
34674;BME280;20879;55.668;37.858;2023-05-10T12:00:00;100448.16;;;19.10;20.50
34674;BME280;20879;55.668;37.858;2023-05-10T12:02:35;100445.91;;;19.01;20.75
34674;BME280;20879;55.668;37.858;2023-05-10T12:05:08;100443.47;;;18.96;21.57
34674;BME280;20879;55.668;37.858;2023-05-10T12:07:40;100441.31;;;19.28;20.85
34674;BME280;20879;55.668;37.858;2023-05-10T12:10:11;100435.47;;;19.44;20.91
34674;BME280;20879;55.668;37.858;2023-05-10T12:12:44;100436.63;;;19.36;20.79
34674;BME280;20879;55.668;37.858;2023-05-10T12:15:18;100429.66;;;18.91;20.88
34674;BME280;20879;55.668;37.858;2023-05-10T12:17:50;100427.47;;;18.55;21.22
34674;BME280;20879;55.668;37.858;2023-05-10T12:20:27;100424.56;;;18.39;21.29
34674;BME280;20879;55.668;37.858;2023-05-10T12:22:58;100425.22;;;18.44;21.71
34674;BME280;20879;55.668;37.858;2023-05-10T12:25:36;100426.91;;;18.71;21.31
34674;BME280;20879;55.668;37.858;2023-05-10T12:28:07;100423.94;;;19.03;21.10
34674;BME280;20879;55.668;37.858;2023-05-10T12:30:38;100417.88;;;19.24;20.93
34674;BME280;20879;55.668;37.858;2023-05-10T12:33:11;100391.78;;;18.75;21.15
34674;BME280;20879;55.668;37.858;2023-05-10T12:35:45;100420.91;;;18.43;21.53
34674;BME280;20879;55.668;37.858;2023-05-10T12:38:27;100413.03;;;18.43;21.96
34674;BME280;20879;55.668;37.858;2023-05-10T12:40:59;100398.16;;;18.44;21.68
34674;BME280;20879;55.668;37.858;2023-05-10T12:43:32;100420.22;;;18.38;21.62
34674;BME280;20879;55.668;37.858;2023-05-10T12:51:30;100414.88;;;17.64;22.62
34674;BME280;20879;55.668;37.858;2023-05-10T12:54:05;100424.50;;;17.37;22.94
34674;BME280;20879;55.668;37.858;2023-05-10T12:56:34;100418.22;;;17.42;22.99
34674;BME280;20879;55.668;37.858;2023-05-10T12:59:04;100412.94;;;17.71;22.71
34674;BME280;20879;55.668;37.858;2023-05-10T13:01:33;100414.53;;;17.75;22.47
34674;BME280;20879;55.668;37.858;2023-05-10T13:04:08;100409.34;;;17.73;22.57
34674;BME280;20879;55.668;37.858;2023-05-10T13:06:40;100413.56;;;17.77;22.60
34674;BME280;20879;55.668;37.858;2023-05-10T13:09:15;100413.19;;;17.90;22.61
34674;BME280;20879;55.668;37.858;2023-05-10T13:11:44;100401.69;;;18.19;22.57
34674;BME280;20879;55.668;37.858;2023-05-10T13:14:14;100395.25;;;18.51;22.14
34674;BME280;20879;55.668;37.858;2023-05-10T13:16:45;100405.84;;;18.72;21.71
34674;BME280;20879;55.668;37.858;2023-05-10T13:19:18;100392.75;;;18.25;22.29
34674;BME280;20879;55.668;37.858;2023-05-10T13:21:49;100407.94;;;18.15;22.53